sensor_id;sensor_type;location;lat;lon;timestamp;P1;durP1;ratioP1;P2;durP2;ratioP2
49396;SDS011;35615;41.410;2.194;2023-04-23T00:00:05;31.85;;;14.60;;
49396;SDS011;35615;41.410;2.194;2023-04-23T00:02:41;32.83;;;15.00;;
49396;SDS011;35615;41.410;2.194;2023-04-23T00:05:14;40.47;;;13.35;;
49396;SDS011;35615;41.410;2.194;2023-04-23T00:07:46;36.00;;;13.00;;
49396;SDS011;35615;41.410;2.194;2023-04-23T00:10:20;34.20;;;12.90;;
49396;SDS011;35615;41.410;2.194;2023-04-23T00:12:53;33.70;;;11.98;;
49396;SDS011;35615;41.410;2.194;2023-04-23T00:15:24;25.05;;;12.57;;
49396;SDS011;35615;41.410;2.194;2023-04-23T00:17:52;34.30;;;12.85;;
49396;SDS011;35615;41.410;2.194;2023-04-23T00:20:20;41.10;;;14.30;;
49396;SDS011;35615;41.410;2.194;2023-04-23T00:22:48;34.92;;;13.65;;
49396;SDS011;35615;41.410;2.194;2023-04-23T00:25:17;30.90;;;12.98;;
49396;SDS011;35615;41.410;2.194;2023-04-23T00:27:45;38.42;;;12.77;;
49396;SDS011;35615;41.410;2.194;2023-04-23T00:30:13;36.28;;;12.05;;
49396;SDS011;35615;41.410;2.194;2023-04-23T00:32:42;43.28;;;12.73;;
49396;SDS011;35615;41.410;2.194;2023-04-23T00:35:11;27.85;;;11.55;;
49396;SDS011;35615;41.410;2.194;2023-04-23T00:37:38;37.85;;;10.45;;
49396;SDS011;35615;41.410;2.194;2023-04-23T00:40:05;30.90;;;10.23;;
49396;SDS011;35615;41.410;2.194;2023-04-23T00:42:33;19.70;;;8.68;;
49396;SDS011;35615;41.410;2.194;2023-04-23T00:45:01;27.33;;;8.48;;
49396;SDS011;35615;41.410;2.194;2023-04-23T00:47:29;28.40;;;7.68;;
49396;SDS011;35615;41.410;2.194;2023-04-23T00:49:57;28.65;;;7.22;;
49396;SDS011;35615;41.410;2.194;2023-04-23T00:52:25;21.33;;;6.75;;
49396;SDS011;35615;41.410;2.194;2023-04-23T00:54:54;20.25;;;7.22;;
49396;SDS011;35615;41.410;2.194;2023-04-23T00:57:21;19.55;;;7.05;;
49396;SDS011;35615;41.410;2.194;2023-04-23T00:59:49;22.27;;;7.90;;
49396;SDS011;35615;41.410;2.194;2023-04-23T01:02:16;24.40;;;7.63;;
49396;SDS011;35615;41.410;2.194;2023-04-23T01:04:45;23.25;;;8.57;;
49396;SDS011;35615;41.410;2.194;2023-04-23T01:07:16;20.42;;;7.43;;
49396;SDS011;35615;41.410;2.194;2023-04-23T01:09:44;19.98;;;7.72;;
49396;SDS011;35615;41.410;2.194;2023-04-23T01:12:11;21.90;;;7.80;;
49396;SDS011;35615;41.410;2.194;2023-04-23T01:14:43;23.90;;;7.45;;
49396;SDS011;35615;41.410;2.194;2023-04-23T01:17:11;17.83;;;7.53;;
49396;SDS011;35615;41.410;2.194;2023-04-23T01:19:39;18.50;;;7.10;;
49396;SDS011;35615;41.410;2.194;2023-04-23T01:22:13;19.35;;;7.43;;
49396;SDS011;35615;41.410;2.194;2023-04-23T01:24:41;20.70;;;6.93;;
49396;SDS011;35615;41.410;2.194;2023-04-23T01:27:09;15.38;;;6.95;;
49396;SDS011;35615;41.410;2.194;2023-04-23T01:29:39;16.95;;;7.05;;
49396;SDS011;35615;41.410;2.194;2023-04-23T01:32:07;18.70;;;6.20;;
49396;SDS011;35615;41.410;2.194;2023-04-23T01:34:36;21.20;;;6.22;;
49396;SDS011;35615;41.410;2.194;2023-04-23T01:37:05;26.42;;;6.28;;
49396;SDS011;35615;41.410;2.194;2023-04-23T01:39:33;14.27;;;6.13;;
49396;SDS011;35615;41.410;2.194;2023-04-23T01:42:02;16.35;;;5.70;;
49396;SDS011;35615;41.410;2.194;2023-04-23T01:44:29;18.23;;;5.88;;
49396;SDS011;35615;41.410;2.194;2023-04-23T01:46:56;13.93;;;5.50;;
49396;SDS011;35615;41.410;2.194;2023-04-23T01:49:24;18.63;;;5.38;;
49396;SDS011;35615;41.410;2.194;2023-04-23T01:51:51;24.23;;;6.05;;
49396;SDS011;35615;41.410;2.194;2023-04-23T01:54:18;15.70;;;4.85;;
49396;SDS011;35615;41.410;2.194;2023-04-23T01:56:48;14.18;;;4.50;;
49396;SDS011;35615;41.410;2.194;2023-04-23T01:59:15;13.68;;;5.10;;
49396;SDS011;35615;41.410;2.194;2023-04-23T02:01:45;12.27;;;4.78;;
49396;SDS011;35615;41.410;2.194;2023-04-23T02:04:13;26.83;;;5.90;;
49396;SDS011;35615;41.410;2.194;2023-04-23T02:06:43;18.52;;;5.78;;
49396;SDS011;35615;41.410;2.194;2023-04-23T02:09:14;17.33;;;5.15;;
49396;SDS011;35615;41.410;2.194;2023-04-23T02:11:41;19.42;;;5.68;;
49396;SDS011;35615;41.410;2.194;2023-04-23T02:14:08;21.95;;;5.13;;
49396;SDS011;35615;41.410;2.194;2023-04-23T02:16:36;17.45;;;5.43;;
49396;SDS011;35615;41.410;2.194;2023-04-23T02:19:03;21.20;;;5.72;;
49396;SDS011;35615;41.410;2.194;2023-04-23T02:21:31;15.60;;;5.10;;
49396;SDS011;35615;41.410;2.194;2023-04-23T02:24:00;14.05;;;5.55;;
49396;SDS011;35615;41.410;2.194;2023-04-23T02:26:28;15.88;;;5.68;;
49396;SDS011;35615;41.410;2.194;2023-04-23T02:28:55;13.43;;;5.75;;
49396;SDS011;35615;41.410;2.194;2023-04-23T02:31:22;19.10;;;5.88;;
49396;SDS011;35615;41.410;2.194;2023-04-23T02:33:50;11.38;;;4.85;;
49396;SDS011;35615;41.410;2.194;2023-04-23T02:36:17;9.77;;;4.68;;
49396;SDS011;35615;41.410;2.194;2023-04-23T02:38:44;8.98;;;4.68;;
49396;SDS011;35615;41.410;2.194;2023-04-23T02:41:14;20.58;;;4.70;;
49396;SDS011;35615;41.410;2.194;2023-04-23T02:43:41;18.98;;;5.25;;
49396;SDS011;35615;41.410;2.194;2023-04-23T02:46:08;17.23;;;5.30;;
49396;SDS011;35615;41.410;2.194;2023-04-23T02:48:39;24.70;;;5.68;;
49396;SDS011;35615;41.410;2.194;2023-04-23T02:51:08;20.42;;;6.13;;
49396;SDS011;35615;41.410;2.194;2023-04-23T02:53:37;14.20;;;5.40;;
49396;SDS011;35615;41.410;2.194;2023-04-23T02:56:05;16.52;;;5.22;;
49396;SDS011;35615;41.410;2.194;2023-04-23T02:58:33;13.77;;;5.53;;
49396;SDS011;35615;41.410;2.194;2023-04-23T03:01:01;18.83;;;5.38;;
49396;SDS011;35615;41.410;2.194;2023-04-23T03:03:29;16.10;;;5.03;;
49396;SDS011;35615;41.410;2.194;2023-04-23T03:06:00;21.95;;;6.15;;
49396;SDS011;35615;41.410;2.194;2023-04-23T03:08:28;13.90;;;5.78;;
49396;SDS011;35615;41.410;2.194;2023-04-23T03:10:55;13.32;;;4.93;;
49396;SDS011;35615;41.410;2.194;2023-04-23T03:13:23;19.98;;;5.13;;
49396;SDS011;35615;41.410;2.194;2023-04-23T03:15:52;18.90;;;5.68;;
49396;SDS011;35615;41.410;2.194;2023-04-23T03:18:24;16.88;;;5.57;;
49396;SDS011;35615;41.410;2.194;2023-04-23T03:20:55;20.30;;;5.43;;
49396;SDS011;35615;41.410;2.194;2023-04-23T03:23:22;23.92;;;4.85;;
49396;SDS011;35615;41.410;2.194;2023-04-23T03:25:50;15.32;;;5.80;;
49396;SDS011;35615;41.410;2.194;2023-04-23T03:28:17;15.23;;;5.05;;
49396;SDS011;35615;41.410;2.194;2023-04-23T03:30:44;22.67;;;5.55;;
49396;SDS011;35615;41.410;2.194;2023-04-23T03:33:11;18.63;;;5.70;;
49396;SDS011;35615;41.410;2.194;2023-04-23T03:35:38;18.23;;;5.00;;
49396;SDS011;35615;41.410;2.194;2023-04-23T03:38:10;12.77;;;5.00;;
49396;SDS011;35615;41.410;2.194;2023-04-23T03:40:39;21.63;;;5.50;;
49396;SDS011;35615;41.410;2.194;2023-04-23T03:43:08;20.23;;;5.63;;
49396;SDS011;35615;41.410;2.194;2023-04-23T03:46:07;20.70;;;5.30;;
49396;SDS011;35615;41.410;2.194;2023-04-23T03:48:38;12.77;;;5.40;;
49396;SDS011;35615;41.410;2.194;2023-04-23T03:51:10;18.35;;;5.95;;
49396;SDS011;35615;41.410;2.194;2023-04-23T03:53:43;20.58;;;5.78;;
49396;SDS011;35615;41.410;2.194;2023-04-23T03:56:32;14.48;;;5.38;;
49396;SDS011;35615;41.410;2.194;2023-04-23T03:59:13;21.17;;;5.95;;
49396;SDS011;35615;41.410;2.194;2023-04-23T04:01:43;8.93;;;4.63;;
49396;SDS011;35615;41.410;2.194;2023-04-23T04:04:10;17.80;;;5.80;;
49396;SDS011;35615;41.410;2.194;2023-04-23T04:06:38;15.85;;;5.40;;
49396;SDS011;35615;41.410;2.194;2023-04-23T04:09:06;14.10;;;6.10;;
49396;SDS011;35615;41.410;2.194;2023-04-23T04:11:34;15.63;;;5.22;;
49396;SDS011;35615;41.410;2.194;2023-04-23T04:14:02;19.70;;;5.70;;
49396;SDS011;35615;41.410;2.194;2023-04-23T04:16:29;11.07;;;5.20;;
49396;SDS011;35615;41.410;2.194;2023-04-23T04:18:56;17.40;;;5.55;;
49396;SDS011;35615;41.410;2.194;2023-04-23T04:21:24;20.83;;;5.38;;
49396;SDS011;35615;41.410;2.194;2023-04-23T04:23:51;17.17;;;5.55;;
49396;SDS011;35615;41.410;2.194;2023-04-23T04:26:19;16.55;;;5.85;;
49396;SDS011;35615;41.410;2.194;2023-04-23T04:28:46;17.95;;;5.93;;
49396;SDS011;35615;41.410;2.194;2023-04-23T04:31:13;22.63;;;6.32;;
49396;SDS011;35615;41.410;2.194;2023-04-23T04:33:41;22.52;;;5.80;;
49396;SDS011;35615;41.410;2.194;2023-04-23T04:36:09;14.05;;;5.60;;
49396;SDS011;35615;41.410;2.194;2023-04-23T04:38:36;15.70;;;5.65;;
49396;SDS011;35615;41.410;2.194;2023-04-23T04:41:03;13.20;;;5.00;;
49396;SDS011;35615;41.410;2.194;2023-04-23T04:43:31;15.15;;;6.05;;
49396;SDS011;35615;41.410;2.194;2023-04-23T04:45:58;17.70;;;5.88;;
49396;SDS011;35615;41.410;2.194;2023-04-23T04:48:26;19.58;;;5.63;;
49396;SDS011;35615;41.410;2.194;2023-04-23T04:50:53;13.23;;;5.97;;
49396;SDS011;35615;41.410;2.194;2023-04-23T04:53:21;19.80;;;6.55;;
49396;SDS011;35615;41.410;2.194;2023-04-23T04:55:48;19.02;;;5.80;;
49396;SDS011;35615;41.410;2.194;2023-04-23T04:58:15;16.75;;;4.90;;
49396;SDS011;35615;41.410;2.194;2023-04-23T05:00:42;22.42;;;5.45;;
49396;SDS011;35615;41.410;2.194;2023-04-23T05:03:10;12.43;;;5.82;;
49396;SDS011;35615;41.410;2.194;2023-04-23T05:05:40;20.35;;;5.63;;
49396;SDS011;35615;41.410;2.194;2023-04-23T05:08:07;11.77;;;5.90;;
49396;SDS011;35615;41.410;2.194;2023-04-23T05:10:34;19.67;;;5.95;;
49396;SDS011;35615;41.410;2.194;2023-04-23T05:13:02;16.92;;;5.70;;
49396;SDS011;35615;41.410;2.194;2023-04-23T05:15:29;15.20;;;6.13;;
49396;SDS011;35615;41.410;2.194;2023-04-23T05:17:56;20.98;;;5.95;;
49396;SDS011;35615;41.410;2.194;2023-04-23T05:20:23;19.13;;;6.07;;
49396;SDS011;35615;41.410;2.194;2023-04-23T05:22:50;20.13;;;6.25;;
49396;SDS011;35615;41.410;2.194;2023-04-23T05:25:20;16.63;;;6.38;;
49396;SDS011;35615;41.410;2.194;2023-04-23T05:27:47;17.70;;;6.63;;
49396;SDS011;35615;41.410;2.194;2023-04-23T05:30:14;18.80;;;6.28;;
49396;SDS011;35615;41.410;2.194;2023-04-23T05:32:41;21.10;;;6.63;;
49396;SDS011;35615;41.410;2.194;2023-04-23T05:35:09;17.65;;;6.18;;
49396;SDS011;35615;41.410;2.194;2023-04-23T05:37:37;15.13;;;6.53;;
49396;SDS011;35615;41.410;2.194;2023-04-23T05:40:04;15.85;;;6.28;;
49396;SDS011;35615;41.410;2.194;2023-04-23T05:42:35;19.38;;;6.10;;
49396;SDS011;35615;41.410;2.194;2023-04-23T05:45:03;16.95;;;6.60;;
49396;SDS011;35615;41.410;2.194;2023-04-23T05:47:33;18.33;;;6.70;;
49396;SDS011;35615;41.410;2.194;2023-04-23T05:50:01;19.20;;;6.65;;
49396;SDS011;35615;41.410;2.194;2023-04-23T05:52:28;22.15;;;6.63;;
49396;SDS011;35615;41.410;2.194;2023-04-23T05:54:59;17.08;;;7.55;;
49396;SDS011;35615;41.410;2.194;2023-04-23T05:57:26;15.07;;;6.70;;
49396;SDS011;35615;41.410;2.194;2023-04-23T05:59:53;23.30;;;6.20;;
49396;SDS011;35615;41.410;2.194;2023-04-23T06:02:20;20.55;;;6.95;;
49396;SDS011;35615;41.410;2.194;2023-04-23T06:04:50;23.15;;;6.15;;
49396;SDS011;35615;41.410;2.194;2023-04-23T06:07:18;14.63;;;5.97;;
49396;SDS011;35615;41.410;2.194;2023-04-23T06:09:46;18.80;;;6.20;;
49396;SDS011;35615;41.410;2.194;2023-04-23T06:12:13;24.55;;;7.28;;
49396;SDS011;35615;41.410;2.194;2023-04-23T06:14:40;27.35;;;8.68;;
49396;SDS011;35615;41.410;2.194;2023-04-23T06:17:08;24.10;;;6.80;;
49396;SDS011;35615;41.410;2.194;2023-04-23T06:19:35;21.23;;;6.75;;
49396;SDS011;35615;41.410;2.194;2023-04-23T06:22:02;20.60;;;7.00;;
49396;SDS011;35615;41.410;2.194;2023-04-23T06:24:29;18.48;;;6.50;;
49396;SDS011;35615;41.410;2.194;2023-04-23T06:26:57;21.63;;;7.22;;
49396;SDS011;35615;41.410;2.194;2023-04-23T06:29:25;17.17;;;6.43;;
49396;SDS011;35615;41.410;2.194;2023-04-23T06:32:03;21.38;;;6.53;;
49396;SDS011;35615;41.410;2.194;2023-04-23T06:34:39;26.77;;;7.60;;
49396;SDS011;35615;41.410;2.194;2023-04-23T06:37:25;22.13;;;6.63;;
49396;SDS011;35615;41.410;2.194;2023-04-23T06:39:55;21.85;;;7.40;;
49396;SDS011;35615;41.410;2.194;2023-04-23T06:42:23;17.08;;;6.90;;
49396;SDS011;35615;41.410;2.194;2023-04-23T06:45:10;17.98;;;7.65;;
49396;SDS011;35615;41.410;2.194;2023-04-23T06:47:38;19.23;;;7.55;;
49396;SDS011;35615;41.410;2.194;2023-04-23T06:50:05;25.50;;;7.40;;
49396;SDS011;35615;41.410;2.194;2023-04-23T06:52:34;22.52;;;7.22;;
49396;SDS011;35615;41.410;2.194;2023-04-23T06:55:01;19.92;;;7.95;;
49396;SDS011;35615;41.410;2.194;2023-04-23T06:57:29;22.08;;;7.95;;
49396;SDS011;35615;41.410;2.194;2023-04-23T06:59:56;15.27;;;7.78;;
49396;SDS011;35615;41.410;2.194;2023-04-23T07:02:28;22.98;;;7.70;;
49396;SDS011;35615;41.410;2.194;2023-04-23T07:04:55;18.02;;;6.63;;
49396;SDS011;35615;41.410;2.194;2023-04-23T07:07:23;21.83;;;8.55;;
49396;SDS011;35615;41.410;2.194;2023-04-23T07:09:51;14.65;;;7.80;;
49396;SDS011;35615;41.410;2.194;2023-04-23T07:12:18;20.52;;;6.80;;
49396;SDS011;35615;41.410;2.194;2023-04-23T07:14:46;24.05;;;8.25;;
49396;SDS011;35615;41.410;2.194;2023-04-23T07:17:13;23.85;;;8.32;;
49396;SDS011;35615;41.410;2.194;2023-04-23T07:19:40;25.02;;;8.02;;
49396;SDS011;35615;41.410;2.194;2023-04-23T07:22:07;29.55;;;8.07;;
49396;SDS011;35615;41.410;2.194;2023-04-23T07:24:38;24.50;;;8.30;;
49396;SDS011;35615;41.410;2.194;2023-04-23T07:27:09;22.63;;;6.82;;
49396;SDS011;35615;41.410;2.194;2023-04-23T07:29:36;24.17;;;7.20;;
49396;SDS011;35615;41.410;2.194;2023-04-23T07:32:04;22.85;;;7.20;;
49396;SDS011;35615;41.410;2.194;2023-04-23T07:34:31;16.95;;;7.03;;
49396;SDS011;35615;41.410;2.194;2023-04-23T07:36:59;14.57;;;6.93;;
49396;SDS011;35615;41.410;2.194;2023-04-23T07:39:26;18.17;;;6.45;;
49396;SDS011;35615;41.410;2.194;2023-04-23T07:41:53;26.25;;;6.60;;
49396;SDS011;35615;41.410;2.194;2023-04-23T07:44:20;15.60;;;6.38;;
49396;SDS011;35615;41.410;2.194;2023-04-23T07:46:48;21.65;;;7.15;;
49396;SDS011;35615;41.410;2.194;2023-04-23T07:49:18;19.00;;;6.80;;
49396;SDS011;35615;41.410;2.194;2023-04-23T07:51:46;16.50;;;6.90;;
49396;SDS011;35615;41.410;2.194;2023-04-23T07:54:14;11.52;;;6.72;;
49396;SDS011;35615;41.410;2.194;2023-04-23T07:56:41;25.63;;;7.95;;
49396;SDS011;35615;41.410;2.194;2023-04-23T07:59:09;17.98;;;7.13;;
49396;SDS011;35615;41.410;2.194;2023-04-23T08:01:38;19.77;;;6.63;;
49396;SDS011;35615;41.410;2.194;2023-04-23T08:04:07;16.50;;;6.85;;
49396;SDS011;35615;41.410;2.194;2023-04-23T08:06:35;16.38;;;7.50;;
49396;SDS011;35615;41.410;2.194;2023-04-23T08:09:02;21.17;;;6.68;;
49396;SDS011;35615;41.410;2.194;2023-04-23T08:11:32;23.55;;;7.88;;
49396;SDS011;35615;41.410;2.194;2023-04-23T08:13:59;16.70;;;6.50;;
49396;SDS011;35615;41.410;2.194;2023-04-23T08:16:27;17.73;;;7.25;;
49396;SDS011;35615;41.410;2.194;2023-04-23T08:18:59;15.50;;;7.55;;
49396;SDS011;35615;41.410;2.194;2023-04-23T08:21:32;11.15;;;6.30;;
49396;SDS011;35615;41.410;2.194;2023-04-23T08:23:59;18.15;;;6.50;;
49396;SDS011;35615;41.410;2.194;2023-04-23T08:26:29;18.35;;;6.70;;
49396;SDS011;35615;41.410;2.194;2023-04-23T08:28:57;18.63;;;7.45;;
49396;SDS011;35615;41.410;2.194;2023-04-23T08:31:26;16.25;;;6.82;;
49396;SDS011;35615;41.410;2.194;2023-04-23T08:33:54;16.92;;;7.22;;
49396;SDS011;35615;41.410;2.194;2023-04-23T08:36:21;15.48;;;6.47;;
49396;SDS011;35615;41.410;2.194;2023-04-23T08:38:49;23.00;;;6.68;;
49396;SDS011;35615;41.410;2.194;2023-04-23T08:41:17;14.93;;;6.53;;
49396;SDS011;35615;41.410;2.194;2023-04-23T08:46:44;23.13;;;7.45;;
49396;SDS011;35615;41.410;2.194;2023-04-23T08:49:12;26.52;;;7.40;;
49396;SDS011;35615;41.410;2.194;2023-04-23T08:51:44;31.90;;;8.43;;
49396;SDS011;35615;41.410;2.194;2023-04-23T08:54:20;14.93;;;7.03;;
49396;SDS011;35615;41.410;2.194;2023-04-23T08:56:54;21.13;;;7.70;;
49396;SDS011;35615;41.410;2.194;2023-04-23T08:59:29;20.25;;;8.70;;
49396;SDS011;35615;41.410;2.194;2023-04-23T09:02:00;23.48;;;7.90;;
49396;SDS011;35615;41.410;2.194;2023-04-23T09:04:34;23.00;;;8.48;;
49396;SDS011;35615;41.410;2.194;2023-04-23T09:07:04;17.90;;;7.93;;
49396;SDS011;35615;41.410;2.194;2023-04-23T09:09:37;22.67;;;8.45;;
49396;SDS011;35615;41.410;2.194;2023-04-23T09:12:07;24.38;;;9.77;;
49396;SDS011;35615;41.410;2.194;2023-04-23T09:14:35;23.90;;;8.90;;
49396;SDS011;35615;41.410;2.194;2023-04-23T09:17:06;19.15;;;8.27;;
49396;SDS011;35615;41.410;2.194;2023-04-23T09:19:33;18.15;;;8.85;;
49396;SDS011;35615;41.410;2.194;2023-04-23T09:22:05;21.95;;;8.70;;
49396;SDS011;35615;41.410;2.194;2023-04-23T09:24:33;26.85;;;10.13;;
49396;SDS011;35615;41.410;2.194;2023-04-23T09:27:00;21.15;;;8.52;;
49396;SDS011;35615;41.410;2.194;2023-04-23T09:29:28;19.15;;;8.35;;
49396;SDS011;35615;41.410;2.194;2023-04-23T09:32:04;19.67;;;7.50;;
49396;SDS011;35615;41.410;2.194;2023-04-23T09:34:34;20.67;;;8.02;;
49396;SDS011;35615;41.410;2.194;2023-04-23T09:37:06;20.00;;;8.48;;
49396;SDS011;35615;41.410;2.194;2023-04-23T09:39:36;19.60;;;8.90;;
49396;SDS011;35615;41.410;2.194;2023-04-23T09:42:06;26.98;;;8.45;;
49396;SDS011;35615;41.410;2.194;2023-04-23T09:44:36;27.88;;;7.90;;
49396;SDS011;35615;41.410;2.194;2023-04-23T09:47:07;14.82;;;6.63;;
49396;SDS011;35615;41.410;2.194;2023-04-23T09:49:46;17.40;;;7.70;;
49396;SDS011;35615;41.410;2.194;2023-04-23T09:52:15;18.50;;;7.78;;
49396;SDS011;35615;41.410;2.194;2023-04-23T09:54:42;18.02;;;7.13;;
49396;SDS011;35615;41.410;2.194;2023-04-23T09:57:12;13.00;;;6.60;;
49396;SDS011;35615;41.410;2.194;2023-04-23T09:59:39;20.58;;;8.02;;
49396;SDS011;35615;41.410;2.194;2023-04-23T10:02:16;13.00;;;6.75;;
49396;SDS011;35615;41.410;2.194;2023-04-23T10:04:44;15.75;;;6.88;;
49396;SDS011;35615;41.410;2.194;2023-04-23T10:07:29;30.30;;;9.50;;
49396;SDS011;35615;41.410;2.194;2023-04-23T10:09:58;19.90;;;8.50;;
49396;SDS011;35615;41.410;2.194;2023-04-23T10:12:25;20.92;;;7.70;;
49396;SDS011;35615;41.410;2.194;2023-04-23T10:15:13;15.95;;;7.35;;
49396;SDS011;35615;41.410;2.194;2023-04-23T10:17:41;17.27;;;6.97;;
49396;SDS011;35615;41.410;2.194;2023-04-23T10:20:09;13.60;;;7.30;;
49396;SDS011;35615;41.410;2.194;2023-04-23T10:22:38;21.88;;;8.43;;
49396;SDS011;35615;41.410;2.194;2023-04-23T10:25:10;17.20;;;7.75;;
49396;SDS011;35615;41.410;2.194;2023-04-23T10:27:39;24.70;;;8.07;;
49396;SDS011;35615;41.410;2.194;2023-04-23T10:30:20;25.20;;;7.95;;
49396;SDS011;35615;41.410;2.194;2023-04-23T10:32:48;29.83;;;8.00;;
49396;SDS011;35615;41.410;2.194;2023-04-23T10:35:19;16.58;;;7.28;;
49396;SDS011;35615;41.410;2.194;2023-04-23T10:37:46;18.95;;;7.88;;
49396;SDS011;35615;41.410;2.194;2023-04-23T10:40:22;18.60;;;8.40;;
49396;SDS011;35615;41.410;2.194;2023-04-23T10:42:58;24.15;;;7.53;;
49396;SDS011;35615;41.410;2.194;2023-04-23T10:45:26;13.13;;;6.97;;
49396;SDS011;35615;41.410;2.194;2023-04-23T10:48:05;24.98;;;9.27;;
49396;SDS011;35615;41.410;2.194;2023-04-23T10:50:34;18.80;;;6.57;;
49396;SDS011;35615;41.410;2.194;2023-04-23T10:53:04;17.20;;;7.82;;
49396;SDS011;35615;41.410;2.194;2023-04-23T10:55:31;20.98;;;7.90;;
49396;SDS011;35615;41.410;2.194;2023-04-23T10:58:06;20.23;;;6.97;;
49396;SDS011;35615;41.410;2.194;2023-04-23T11:00:43;19.95;;;7.90;;
49396;SDS011;35615;41.410;2.194;2023-04-23T11:03:28;14.73;;;7.85;;
49396;SDS011;35615;41.410;2.194;2023-04-23T11:06:02;28.17;;;8.10;;
49396;SDS011;35615;41.410;2.194;2023-04-23T11:08:31;17.95;;;7.90;;
49396;SDS011;35615;41.410;2.194;2023-04-23T11:11:01;15.63;;;7.72;;
49396;SDS011;35615;41.410;2.194;2023-04-23T11:13:33;22.80;;;8.05;;
49396;SDS011;35615;41.410;2.194;2023-04-23T11:19:07;22.17;;;9.15;;
49396;SDS011;35615;41.410;2.194;2023-04-23T11:24:24;17.88;;;9.02;;
49396;SDS011;35615;41.410;2.194;2023-04-23T11:26:53;29.00;;;9.98;;
49396;SDS011;35615;41.410;2.194;2023-04-23T11:29:21;19.10;;;8.57;;
49396;SDS011;35615;41.410;2.194;2023-04-23T11:31:50;28.85;;;9.18;;
49396;SDS011;35615;41.410;2.194;2023-04-23T11:34:29;22.58;;;9.52;;
49396;SDS011;35615;41.410;2.194;2023-04-23T11:36:57;28.83;;;10.15;;
49396;SDS011;35615;41.410;2.194;2023-04-23T11:39:26;21.40;;;10.10;;
49396;SDS011;35615;41.410;2.194;2023-04-23T11:41:54;21.42;;;8.80;;
49396;SDS011;35615;41.410;2.194;2023-04-23T11:44:23;22.08;;;8.60;;
49396;SDS011;35615;41.410;2.194;2023-04-23T11:46:50;21.40;;;8.45;;
49396;SDS011;35615;41.410;2.194;2023-04-23T11:49:18;20.10;;;7.75;;
49396;SDS011;35615;41.410;2.194;2023-04-23T11:51:50;23.48;;;7.72;;
49396;SDS011;35615;41.410;2.194;2023-04-23T11:54:18;20.60;;;8.18;;
49396;SDS011;35615;41.410;2.194;2023-04-23T11:56:50;16.35;;;8.15;;
49396;SDS011;35615;41.410;2.194;2023-04-23T11:59:19;21.60;;;7.60;;
49396;SDS011;35615;41.410;2.194;2023-04-23T12:01:48;17.42;;;7.05;;
49396;SDS011;35615;41.410;2.194;2023-04-23T12:04:25;15.93;;;6.50;;
49396;SDS011;35615;41.410;2.194;2023-04-23T12:06:55;17.23;;;8.52;;
49396;SDS011;35615;41.410;2.194;2023-04-23T12:09:25;28.35;;;9.68;;
49396;SDS011;35615;41.410;2.194;2023-04-23T12:11:53;27.48;;;9.00;;
49396;SDS011;35615;41.410;2.194;2023-04-23T12:14:25;15.40;;;7.30;;
49396;SDS011;35615;41.410;2.194;2023-04-23T12:16:57;28.33;;;8.50;;
49396;SDS011;35615;41.410;2.194;2023-04-23T12:19:34;17.77;;;7.28;;
49396;SDS011;35615;41.410;2.194;2023-04-23T12:22:02;15.73;;;7.03;;
49396;SDS011;35615;41.410;2.194;2023-04-23T12:24:44;18.60;;;7.80;;
49396;SDS011;35615;41.410;2.194;2023-04-23T12:27:14;19.48;;;8.48;;
49396;SDS011;35615;41.410;2.194;2023-04-23T12:29:57;20.08;;;6.93;;
49396;SDS011;35615;41.410;2.194;2023-04-23T12:32:32;20.63;;;7.25;;
49396;SDS011;35615;41.410;2.194;2023-04-23T12:34:59;19.35;;;7.07;;
49396;SDS011;35615;41.410;2.194;2023-04-23T12:37:27;24.75;;;7.22;;
49396;SDS011;35615;41.410;2.194;2023-04-23T12:39:56;22.98;;;7.97;;
49396;SDS011;35615;41.410;2.194;2023-04-23T12:42:27;15.75;;;7.18;;
49396;SDS011;35615;41.410;2.194;2023-04-23T12:44:54;20.92;;;7.53;;
49396;SDS011;35615;41.410;2.194;2023-04-23T12:47:22;18.40;;;6.53;;
49396;SDS011;35615;41.410;2.194;2023-04-23T12:49:49;12.93;;;6.72;;
49396;SDS011;35615;41.410;2.194;2023-04-23T12:52:19;14.30;;;6.60;;
49396;SDS011;35615;41.410;2.194;2023-04-23T12:54:46;19.00;;;7.63;;
49396;SDS011;35615;41.410;2.194;2023-04-23T12:57:17;22.60;;;7.90;;
49396;SDS011;35615;41.410;2.194;2023-04-23T13:02:20;14.15;;;6.32;;
49396;SDS011;35615;41.410;2.194;2023-04-23T13:04:48;17.42;;;7.45;;
49396;SDS011;35615;41.410;2.194;2023-04-23T13:07:17;19.55;;;6.78;;
49396;SDS011;35615;41.410;2.194;2023-04-23T13:09:50;14.13;;;6.53;;
49396;SDS011;35615;41.410;2.194;2023-04-23T13:12:18;16.98;;;6.32;;
49396;SDS011;35615;41.410;2.194;2023-04-23T13:14:46;14.52;;;6.45;;
49396;SDS011;35615;41.410;2.194;2023-04-23T13:17:16;17.45;;;7.15;;
49396;SDS011;35615;41.410;2.194;2023-04-23T13:19:43;19.73;;;7.57;;
49396;SDS011;35615;41.410;2.194;2023-04-23T13:22:10;19.58;;;7.25;;
49396;SDS011;35615;41.410;2.194;2023-04-23T13:24:38;11.10;;;6.22;;
49396;SDS011;35615;41.410;2.194;2023-04-23T13:27:05;18.75;;;6.90;;
49396;SDS011;35615;41.410;2.194;2023-04-23T13:29:36;20.25;;;7.45;;
49396;SDS011;35615;41.410;2.194;2023-04-23T13:32:06;16.33;;;6.15;;
49396;SDS011;35615;41.410;2.194;2023-04-23T13:34:36;21.27;;;6.93;;
49396;SDS011;35615;41.410;2.194;2023-04-23T13:37:03;14.15;;;6.00;;
49396;SDS011;35615;41.410;2.194;2023-04-23T13:39:35;18.17;;;6.10;;
49396;SDS011;35615;41.410;2.194;2023-04-23T13:42:06;17.88;;;6.30;;
49396;SDS011;35615;41.410;2.194;2023-04-23T13:44:35;16.80;;;6.55;;
49396;SDS011;35615;41.410;2.194;2023-04-23T13:47:03;12.75;;;5.40;;
49396;SDS011;35615;41.410;2.194;2023-04-23T13:49:30;12.43;;;5.30;;
49396;SDS011;35615;41.410;2.194;2023-04-23T13:52:02;16.20;;;6.03;;
49396;SDS011;35615;41.410;2.194;2023-04-23T13:54:34;10.60;;;5.20;;
49396;SDS011;35615;41.410;2.194;2023-04-23T13:57:02;12.98;;;5.90;;
49396;SDS011;35615;41.410;2.194;2023-04-23T13:59:29;16.98;;;4.60;;
49396;SDS011;35615;41.410;2.194;2023-04-23T14:01:56;18.27;;;6.20;;
49396;SDS011;35615;41.410;2.194;2023-04-23T14:04:26;20.00;;;5.65;;
49396;SDS011;35615;41.410;2.194;2023-04-23T14:06:54;11.50;;;5.28;;
49396;SDS011;35615;41.410;2.194;2023-04-23T14:09:23;18.45;;;5.10;;
49396;SDS011;35615;41.410;2.194;2023-04-23T14:11:50;16.95;;;5.00;;
49396;SDS011;35615;41.410;2.194;2023-04-23T14:14:18;14.98;;;5.40;;
49396;SDS011;35615;41.410;2.194;2023-04-23T14:16:45;13.60;;;5.07;;
49396;SDS011;35615;41.410;2.194;2023-04-23T14:19:14;17.13;;;5.60;;
49396;SDS011;35615;41.410;2.194;2023-04-23T14:21:41;16.08;;;5.22;;
49396;SDS011;35615;41.410;2.194;2023-04-23T14:27:10;15.70;;;4.72;;
49396;SDS011;35615;41.410;2.194;2023-04-23T14:29:44;15.35;;;4.72;;
49396;SDS011;35615;41.410;2.194;2023-04-23T14:32:12;12.35;;;3.65;;
49396;SDS011;35615;41.410;2.194;2023-04-23T14:34:39;18.75;;;5.25;;
49396;SDS011;35615;41.410;2.194;2023-04-23T14:37:07;16.75;;;4.75;;
49396;SDS011;35615;41.410;2.194;2023-04-23T14:39:34;9.32;;;4.93;;
49396;SDS011;35615;41.410;2.194;2023-04-23T14:42:02;23.00;;;5.00;;
49396;SDS011;35615;41.410;2.194;2023-04-23T14:44:29;16.80;;;4.20;;
49396;SDS011;35615;41.410;2.194;2023-04-23T14:46:57;14.30;;;3.95;;
49396;SDS011;35615;41.410;2.194;2023-04-23T14:49:30;18.45;;;4.07;;
49396;SDS011;35615;41.410;2.194;2023-04-23T14:51:57;12.02;;;4.85;;
49396;SDS011;35615;41.410;2.194;2023-04-23T14:54:25;15.90;;;4.65;;
49396;SDS011;35615;41.410;2.194;2023-04-23T14:56:52;15.85;;;4.28;;
49396;SDS011;35615;41.410;2.194;2023-04-23T14:59:20;8.15;;;3.63;;